createdAt,value
2019-03-16T00:01:02.145Z,2.47
2019-03-16T00:03:33.507Z,2.17
2019-03-16T00:06:05.175Z,2.47
2019-03-16T00:08:36.552Z,2.30
2019-03-16T00:11:09.771Z,1.97
2019-03-16T00:13:41.475Z,2.13
2019-03-16T00:16:13.271Z,2.30
2019-03-16T00:18:46.322Z,2.13
2019-03-16T00:21:18.611Z,2.10
2019-03-16T00:23:50.169Z,2.17
2019-03-16T00:26:21.631Z,2.40
2019-03-16T00:28:52.981Z,2.10
2019-03-16T00:31:27.807Z,2.37
2019-03-16T00:33:59.545Z,1.90
2019-03-16T00:36:30.858Z,2.10
2019-03-16T00:39:02.103Z,2.43
2019-03-16T00:41:33.618Z,2.67
2019-03-16T00:44:04.987Z,2.70
2019-03-16T00:46:36.431Z,2.43
2019-03-16T00:49:08.067Z,2.60
2019-03-16T00:51:39.809Z,2.23
2019-03-16T00:54:12.883Z,2.70
2019-03-16T00:56:44.785Z,2.97
2019-03-16T00:59:16.024Z,3.57
2019-03-16T01:01:48.437Z,3.50
2019-03-16T01:04:19.890Z,2.97
2019-03-16T01:06:51.426Z,3.27
2019-03-16T01:09:24.186Z,3.50
2019-03-16T01:11:55.539Z,3.33
2019-03-16T01:14:27.279Z,3.13
2019-03-16T01:17:00.438Z,3.67
2019-03-16T01:19:31.837Z,3.27
2019-03-16T01:22:03.158Z,3.37
2019-03-16T01:24:35.956Z,3.23
2019-03-16T01:27:08.494Z,3.17
2019-03-16T01:29:43.574Z,3.50
2019-03-16T01:32:14.879Z,3.70
2019-03-16T01:34:46.162Z,3.70
2019-03-16T01:37:17.420Z,3.77
2019-03-16T01:39:48.811Z,4.50
2019-03-16T01:42:20.106Z,5.37
2019-03-16T01:44:51.447Z,5.50
2019-03-16T01:47:22.718Z,6.03
2019-03-16T01:49:54.270Z,6.23
2019-03-16T01:52:27.430Z,4.90
2019-03-16T01:54:58.765Z,5.10
2019-03-16T01:57:30.050Z,4.27
2019-03-16T02:00:01.715Z,4.50
2019-03-16T02:02:34.480Z,3.83
2019-03-16T02:05:06.250Z,3.87
2019-03-16T02:07:37.821Z,3.43
2019-03-16T02:10:12.237Z,3.67
2019-03-16T02:12:43.432Z,3.40
2019-03-16T02:15:14.694Z,4.20
2019-03-16T02:17:46.270Z,3.90
2019-03-16T02:20:17.533Z,5.13
2019-03-16T02:22:50.415Z,4.87
2019-03-16T02:25:21.728Z,4.80
2019-03-16T02:27:53.125Z,4.83
2019-03-16T02:30:24.468Z,4.50
2019-03-16T02:33:11.775Z,5.17
2019-03-16T02:35:29.164Z,4.70
2019-03-16T02:38:00.510Z,6.23
2019-03-16T02:40:31.902Z,5.60
2019-03-16T02:43:03.459Z,5.23
2019-03-16T02:45:36.724Z,5.90
2019-03-16T02:48:08.171Z,4.93
2019-03-16T02:50:39.691Z,4.50
2019-03-16T02:53:11.187Z,5.10
2019-03-16T02:55:42.995Z,5.30
2019-03-16T02:58:18.284Z,5.67
2019-03-16T03:00:50.661Z,4.80
2019-03-16T03:03:29.611Z,5.90
2019-03-16T03:06:01.049Z,4.17
2019-03-16T03:08:34.657Z,4.80
2019-03-16T03:11:05.968Z,3.53
2019-03-16T03:13:37.379Z,4.03
2019-03-16T03:16:08.771Z,3.47
2019-03-16T03:18:44.337Z,3.10
2019-03-16T03:21:20.049Z,2.70
2019-03-16T03:23:51.655Z,2.93
2019-03-16T03:26:25.360Z,3.00
2019-03-16T03:28:56.737Z,2.37
2019-03-16T03:31:31.724Z,2.23
2019-03-16T03:34:06.016Z,2.80
2019-03-16T03:36:42.910Z,2.30
2019-03-16T03:39:13.815Z,2.10
2019-03-16T03:41:45.584Z,2.50
2019-03-16T03:44:17.326Z,2.40
2019-03-16T03:46:48.603Z,2.20
2019-03-16T03:49:22.779Z,1.77
2019-03-16T03:51:57.271Z,1.90
2019-03-16T03:54:28.618Z,1.70
2019-03-16T03:57:00.329Z,1.80
2019-03-16T03:59:33.397Z,1.70
2019-03-16T04:02:09.231Z,2.10
2019-03-16T04:04:42.441Z,2.47
2019-03-16T04:07:19.583Z,2.30
2019-03-16T04:09:51.154Z,2.27
2019-03-16T04:12:22.257Z,2.40
2019-03-16T04:14:53.708Z,2.27
2019-03-16T04:17:25.561Z,2.20
2019-03-16T04:19:57.444Z,2.37
2019-03-16T04:22:31.432Z,2.37
2019-03-16T04:25:04.198Z,2.20
2019-03-16T04:27:35.501Z,2.80
2019-03-16T04:30:07.182Z,2.10
2019-03-16T04:32:39.144Z,2.20
2019-03-16T04:35:12.156Z,2.60
2019-03-16T04:37:45.474Z,2.77
2019-03-16T04:40:18.262Z,3.60
2019-03-16T04:42:49.728Z,2.97
2019-03-16T04:45:21.103Z,3.43
2019-03-16T04:47:53.008Z,3.13
2019-03-16T04:50:24.863Z,3.43
2019-03-16T04:52:56.319Z,3.50
2019-03-16T04:55:29.514Z,2.83
2019-03-16T04:58:01.461Z,3.07
2019-03-16T05:00:33.481Z,3.50
2019-03-16T05:03:08.147Z,3.27
2019-03-16T05:05:38.190Z,3.17
2019-03-16T05:08:12.661Z,3.37
2019-03-16T05:10:45.465Z,3.10
2019-03-16T05:13:16.818Z,3.10
2019-03-16T05:15:50.748Z,2.90
2019-03-16T05:18:21.215Z,3.03
2019-03-16T05:20:52.913Z,3.23
2019-03-16T05:23:24.323Z,3.33
2019-03-16T05:25:55.611Z,3.13
2019-03-16T05:28:27.439Z,2.97
2019-03-16T05:30:58.768Z,3.17
2019-03-16T05:33:30.184Z,3.03
2019-03-16T05:36:04.442Z,3.47
2019-03-16T05:38:36.208Z,2.73
2019-03-16T05:41:08.269Z,3.23
2019-03-16T05:43:41.580Z,3.33
2019-03-16T05:46:12.891Z,3.70
2019-03-16T05:48:45.787Z,3.07
2019-03-16T05:51:17.464Z,3.10
2019-03-16T05:53:48.994Z,3.10
2019-03-16T05:56:20.391Z,3.33
2019-03-16T05:58:51.684Z,3.70
2019-03-16T06:01:23.444Z,2.90
2019-03-16T06:03:54.985Z,3.17
2019-03-16T06:06:27.498Z,3.73
2019-03-16T06:08:58.958Z,3.20
2019-03-16T06:11:30.450Z,2.87
2019-03-16T06:14:01.727Z,3.30
2019-03-16T06:16:33.226Z,3.37
2019-03-16T06:19:06.796Z,3.17
2019-03-16T06:21:38.225Z,3.40
2019-03-16T06:24:09.568Z,2.90
2019-03-16T06:26:40.970Z,3.60
2019-03-16T06:29:16.843Z,2.73
2019-03-16T06:31:48.444Z,2.97
2019-03-16T06:34:23.193Z,3.13
2019-03-16T06:36:54.645Z,3.20
2019-03-16T06:39:27.753Z,2.60
2019-03-16T06:41:59.303Z,2.93
2019-03-16T06:44:31.696Z,2.90
2019-03-16T06:47:03.276Z,3.13
2019-03-16T06:49:39.229Z,2.73
2019-03-16T06:52:11.017Z,2.73
2019-03-16T06:54:43.985Z,3.20
2019-03-16T06:57:15.500Z,2.93
2019-03-16T06:59:47.896Z,2.43
2019-03-16T07:02:21.298Z,3.20
2019-03-16T07:04:52.589Z,2.90
2019-03-16T07:07:24.066Z,2.73
2019-03-16T07:09:56.585Z,2.60
2019-03-16T07:12:29.434Z,3.17
2019-03-16T07:15:01.105Z,2.37
2019-03-16T07:17:32.652Z,2.80
2019-03-16T07:20:07.128Z,2.90
2019-03-16T07:22:38.548Z,2.77
2019-03-16T07:25:10.322Z,2.13
2019-03-16T07:27:41.792Z,2.40
2019-03-16T07:30:13.239Z,2.20
2019-03-16T07:32:46.025Z,2.60
2019-03-16T07:35:17.737Z,2.53
2019-03-16T07:37:49.443Z,2.90
2019-03-16T07:40:23.437Z,2.10
2019-03-16T07:42:55.580Z,2.53
2019-03-16T07:45:26.877Z,2.73
2019-03-16T07:47:58.263Z,2.37
2019-03-16T07:50:29.677Z,3.10
2019-03-16T07:53:06.271Z,2.30
2019-03-16T07:55:48.881Z,2.63
2019-03-16T07:58:21.082Z,2.53
2019-03-16T08:00:52.611Z,2.47
2019-03-16T08:03:24.579Z,2.20
2019-03-16T08:05:56.008Z,2.07
2019-03-16T08:08:29.146Z,3.43
2019-03-16T08:11:02.600Z,2.03
2019-03-16T08:13:35.844Z,2.30
2019-03-16T08:16:07.767Z,2.53
2019-03-16T08:18:39.584Z,3.13
2019-03-16T08:21:12.758Z,1.97
2019-03-16T08:23:44.540Z,1.80
2019-03-16T08:26:15.982Z,1.83
2019-03-16T08:28:47.609Z,2.67
2019-03-16T08:31:18.973Z,2.77
2019-03-16T08:33:50.443Z,1.97
2019-03-16T08:36:21.799Z,1.90
2019-03-16T08:38:55.127Z,2.10
2019-03-16T08:41:26.581Z,1.83
2019-03-16T08:44:00.063Z,1.87
2019-03-16T08:46:31.432Z,1.80
2019-03-16T08:49:03.377Z,2.20
2019-03-16T08:51:34.781Z,1.50
2019-03-16T08:54:06.166Z,2.10
2019-03-16T08:56:38.296Z,1.30
2019-03-16T08:59:09.588Z,2.30
2019-03-16T09:01:41.469Z,1.90
2019-03-16T09:04:13.518Z,2.17
2019-03-16T09:06:45.642Z,1.73
2019-03-16T09:09:26.176Z,1.80
2019-03-16T09:12:20.656Z,1.40
2019-03-16T09:18:07.737Z,2.10
2019-03-16T09:20:56.000Z,2.40
2019-03-16T09:23:27.402Z,2.30
2019-03-16T09:26:00.870Z,2.27
2019-03-16T09:28:32.931Z,1.63
2019-03-16T09:31:04.254Z,1.70
2019-03-16T09:33:36.180Z,1.83
2019-03-16T09:36:07.951Z,1.83
2019-03-16T09:38:39.563Z,1.67
2019-03-16T09:41:11.453Z,1.90
2019-03-16T09:43:42.883Z,2.23
2019-03-16T09:46:14.221Z,1.70
2019-03-16T09:48:45.777Z,2.00
2019-03-16T09:51:17.453Z,1.80
2019-03-16T09:53:50.168Z,1.60
2019-03-16T09:56:22.041Z,1.93
2019-03-16T09:58:53.479Z,1.97
2019-03-16T10:01:26.271Z,1.80
2019-03-16T10:03:58.089Z,2.03
2019-03-16T10:06:29.933Z,1.90
2019-03-16T10:09:01.606Z,1.97
2019-03-16T10:11:34.847Z,1.97
2019-03-16T10:14:06.750Z,1.70
2019-03-16T10:16:38.086Z,1.80
2019-03-16T10:19:09.491Z,1.80
2019-03-16T10:21:41.472Z,1.67
2019-03-16T10:24:30.392Z,1.30
2019-03-16T10:27:01.887Z,1.40
2019-03-16T10:29:33.379Z,1.50
2019-03-16T10:32:05.202Z,1.20
2019-03-16T10:34:36.778Z,1.50
2019-03-16T10:37:08.625Z,1.17
2019-03-16T10:39:40.230Z,1.27
2019-03-16T10:42:13.390Z,1.20
2019-03-16T10:44:45.220Z,1.77
2019-03-16T10:47:17.253Z,1.03
2019-03-16T10:49:48.862Z,1.10
2019-03-16T10:52:20.560Z,1.40
2019-03-16T10:54:51.994Z,1.40
2019-03-16T10:57:23.396Z,1.30
2019-03-16T10:59:55.661Z,1.57
2019-03-16T11:02:27.142Z,1.10
2019-03-16T11:05:00.383Z,1.67
2019-03-16T11:07:31.770Z,1.23
2019-03-16T11:10:03.102Z,1.10
2019-03-16T11:12:34.641Z,1.60
2019-03-16T11:15:07.128Z,1.07
2019-03-16T11:17:38.513Z,0.90
2019-03-16T11:20:11.510Z,1.20
2019-03-16T11:22:42.912Z,1.03
2019-03-16T11:25:14.577Z,1.13
2019-03-16T11:27:45.837Z,1.10
2019-03-16T11:30:19.448Z,1.47
2019-03-16T11:32:51.323Z,1.07
2019-03-16T11:35:22.684Z,1.50
2019-03-16T11:37:54.751Z,1.23
2019-03-16T11:40:26.281Z,1.33
2019-03-16T11:43:00.954Z,1.00
2019-03-16T11:45:32.889Z,1.10
2019-03-16T11:48:04.232Z,0.90
2019-03-16T11:50:36.963Z,1.13
2019-03-16T11:53:10.079Z,1.10
2019-03-16T11:55:41.994Z,0.90
2019-03-16T11:58:13.794Z,1.10
2019-03-16T12:00:45.137Z,1.43
2019-03-16T12:03:16.514Z,1.37
2019-03-16T12:05:53.103Z,1.17
2019-03-16T12:11:00.119Z,1.30
2019-03-16T12:13:31.901Z,1.50
2019-03-16T12:16:05.111Z,1.10
2019-03-16T12:18:37.157Z,2.07
2019-03-16T12:21:08.848Z,1.50
2019-03-16T12:23:40.663Z,2.10
2019-03-16T12:26:12.434Z,1.23
2019-03-16T12:28:43.843Z,1.27
2019-03-16T12:31:15.300Z,1.20
2019-03-16T12:36:28.051Z,1.50
2019-03-16T12:38:59.921Z,1.10
2019-03-16T12:41:33.576Z,1.63
2019-03-16T12:44:05.201Z,1.20
2019-03-16T12:46:38.188Z,1.43
2019-03-16T12:49:09.949Z,1.43
2019-03-16T12:51:44.493Z,1.47
2019-03-16T12:54:15.945Z,2.00
2019-03-16T12:56:47.318Z,1.50
2019-03-16T12:59:18.857Z,1.90
2019-03-16T13:01:50.455Z,1.43
2019-03-16T13:04:21.934Z,2.20
2019-03-16T13:06:53.580Z,1.73
2019-03-16T13:09:24.966Z,1.67
2019-03-16T13:11:56.754Z,1.60
2019-03-16T13:14:28.374Z,1.50
2019-03-16T13:17:00.148Z,1.80
2019-03-16T13:19:31.821Z,1.50
2019-03-16T13:22:03.707Z,1.47
2019-03-16T13:24:35.670Z,1.40
2019-03-16T13:27:07.230Z,1.30
2019-03-16T13:29:40.353Z,1.57
2019-03-16T13:32:11.631Z,1.40
2019-03-16T13:34:43.711Z,1.37
2019-03-16T13:37:15.501Z,1.23
2019-03-16T13:39:47.052Z,1.53
2019-03-16T13:42:18.822Z,1.40
2019-03-16T13:44:53.704Z,1.50
2019-03-16T13:47:28.864Z,1.20
2019-03-16T13:50:03.335Z,1.50
2019-03-16T13:52:34.926Z,1.90
2019-03-16T13:55:09.469Z,1.30
2019-03-16T13:57:40.927Z,1.80
2019-03-16T14:00:13.651Z,2.07
2019-03-16T14:02:46.184Z,1.43
2019-03-16T14:05:17.731Z,1.50
2019-03-16T14:07:49.793Z,1.57
2019-03-16T14:10:22.333Z,2.10
2019-03-16T14:12:54.442Z,2.13
2019-03-16T14:15:25.878Z,2.20
2019-03-16T14:17:58.580Z,2.00
2019-03-16T14:20:29.996Z,1.90
2019-03-16T14:23:01.974Z,2.20
2019-03-16T14:25:34.644Z,1.70
2019-03-16T14:28:06.408Z,2.30
2019-03-16T14:30:41.310Z,1.60
2019-03-16T14:33:11.488Z,2.10
2019-03-16T14:35:52.452Z,1.83
2019-03-16T14:38:25.449Z,1.97
2019-03-16T14:40:56.942Z,1.97
2019-03-16T14:43:30.236Z,2.00
2019-03-16T14:46:02.313Z,1.70
2019-03-16T14:48:33.960Z,2.00
2019-03-16T14:51:05.380Z,2.27
2019-03-16T14:53:38.671Z,2.30
2019-03-16T14:56:10.058Z,1.90
2019-03-16T14:58:44.407Z,2.00
2019-03-16T15:01:15.726Z,1.40
2019-03-16T15:03:47.353Z,2.30
2019-03-16T15:06:20.622Z,2.20
2019-03-16T15:08:52.242Z,2.33
2019-03-16T15:11:23.763Z,2.10
2019-03-16T15:13:57.351Z,1.67
2019-03-16T15:16:29.212Z,1.90
2019-03-16T15:21:45.945Z,1.80
2019-03-16T15:24:17.388Z,2.40
2019-03-16T15:26:48.830Z,1.63
2019-03-16T15:29:20.372Z,1.90
2019-03-16T15:31:51.802Z,2.20
2019-03-16T15:34:23.506Z,2.00
2019-03-16T15:36:54.883Z,2.00
2019-03-16T15:39:27.720Z,2.30
2019-03-16T15:41:59.037Z,2.50
2019-03-16T15:44:30.950Z,2.40
2019-03-16T15:47:02.713Z,2.20
2019-03-16T15:49:34.181Z,2.27
2019-03-16T15:52:05.844Z,2.10
2019-03-16T15:54:37.280Z,1.83
2019-03-16T15:57:10.743Z,2.23
2019-03-16T15:59:42.162Z,1.90
2019-03-16T16:02:13.850Z,2.80
2019-03-16T16:04:45.450Z,2.13
2019-03-16T16:07:16.971Z,2.13
2019-03-16T16:09:48.550Z,2.57
2019-03-16T16:12:20.099Z,2.20
2019-03-16T16:14:51.444Z,2.30
2019-03-16T16:17:22.750Z,4.20
2019-03-16T16:19:54.681Z,2.70
2019-03-16T16:22:26.155Z,2.20
2019-03-16T16:24:57.803Z,4.93
2019-03-16T16:27:29.704Z,4.17
2019-03-16T16:30:02.028Z,3.07
2019-03-16T16:32:33.375Z,3.20
2019-03-16T16:35:05.005Z,5.43
2019-03-16T16:37:36.445Z,3.60
2019-03-16T16:40:09.040Z,2.63
2019-03-16T16:42:40.556Z,4.33
2019-03-16T16:45:12.663Z,3.10
2019-03-16T16:47:44.043Z,3.10
2019-03-16T16:50:16.053Z,8.00
2019-03-16T16:52:47.435Z,3.97
2019-03-16T16:55:19.218Z,4.43
2019-03-16T16:57:51.713Z,2.53
2019-03-16T17:00:23.187Z,2.90
2019-03-16T17:02:56.033Z,2.73
2019-03-16T17:05:29.029Z,3.30
2019-03-16T17:08:02.723Z,5.97
2019-03-16T17:10:36.103Z,3.00
2019-03-16T17:13:07.919Z,3.93
2019-03-16T17:15:39.454Z,2.93
2019-03-16T17:18:11.073Z,3.03
2019-03-16T17:20:43.135Z,3.43
2019-03-16T17:23:14.669Z,3.60
2019-03-16T17:25:46.499Z,2.90
2019-03-16T17:28:20.130Z,4.80
2019-03-16T17:30:51.961Z,4.60
2019-03-16T17:33:23.690Z,3.20
2019-03-16T17:35:55.051Z,4.03
2019-03-16T17:38:26.562Z,6.10
2019-03-16T17:40:58.115Z,3.53
2019-03-16T17:43:30.180Z,4.23
2019-03-16T17:46:01.716Z,2.77
2019-03-16T17:48:33.151Z,5.90
2019-03-16T17:51:04.644Z,4.67
2019-03-16T17:53:36.523Z,4.60
2019-03-16T17:56:08.182Z,4.23
2019-03-16T17:58:40.930Z,4.20
2019-03-16T18:01:12.198Z,3.30
2019-03-16T18:03:44.096Z,3.77
2019-03-16T18:06:15.436Z,4.10
2019-03-16T18:08:47.179Z,4.33
2019-03-16T18:11:18.512Z,3.50
2019-03-16T18:13:50.360Z,3.00
2019-03-16T18:16:23.326Z,2.87
2019-03-16T18:18:56.474Z,3.00
2019-03-16T18:21:28.024Z,3.83
2019-03-16T18:23:59.990Z,4.73
2019-03-16T18:26:38.405Z,2.93
2019-03-16T18:29:10.908Z,3.40
2019-03-16T18:31:42.586Z,4.30
2019-03-16T18:34:14.182Z,3.37
2019-03-16T18:36:45.448Z,3.83
2019-03-16T18:39:21.647Z,6.40
2019-03-16T18:41:55.038Z,6.60
2019-03-16T18:44:26.783Z,6.17
2019-03-16T18:46:58.141Z,5.67
2019-03-16T18:49:30.966Z,4.70
2019-03-16T18:52:02.758Z,3.63
2019-03-16T18:54:34.141Z,3.43
2019-03-16T18:57:07.265Z,3.53
2019-03-16T18:59:40.647Z,2.90
2019-03-16T19:02:20.568Z,2.80
2019-03-16T19:04:44.926Z,3.50
2019-03-16T19:07:19.245Z,3.07
2019-03-16T19:09:53.730Z,3.60
2019-03-16T19:12:25.105Z,3.03
2019-03-16T19:14:56.447Z,2.80
2019-03-16T19:17:27.730Z,3.60
2019-03-16T19:19:59.429Z,3.00
2019-03-16T19:22:33.165Z,3.00
2019-03-16T19:25:04.871Z,3.10
2019-03-16T19:27:39.963Z,3.30
2019-03-16T19:30:12.776Z,2.67
2019-03-16T19:32:49.145Z,3.30
2019-03-16T19:35:21.446Z,3.47
2019-03-16T19:37:52.823Z,3.77
2019-03-16T19:40:24.288Z,3.23
2019-03-16T19:42:59.065Z,3.10
2019-03-16T19:45:31.032Z,3.80
2019-03-16T19:48:04.241Z,3.80
2019-03-16T19:50:53.886Z,3.50
2019-03-16T19:53:26.635Z,3.30
2019-03-16T19:55:58.796Z,3.17
2019-03-16T19:58:30.367Z,4.00
2019-03-16T20:01:01.840Z,3.40
2019-03-16T20:03:33.338Z,4.37
2019-03-16T20:06:05.987Z,3.13
2019-03-16T20:08:39.872Z,2.80
2019-03-16T20:11:14.615Z,3.20
2019-03-16T20:13:48.810Z,3.57
2019-03-16T20:16:23.851Z,2.90
2019-03-16T20:18:55.301Z,3.37
2019-03-16T20:21:27.064Z,3.30
2019-03-16T20:23:58.944Z,3.00
2019-03-16T20:26:30.612Z,3.20
2019-03-16T20:29:01.909Z,2.90
2019-03-16T20:31:46.721Z,2.80
2019-03-16T20:34:18.125Z,3.83
2019-03-16T20:36:50.403Z,3.00
2019-03-16T20:39:24.561Z,3.37
2019-03-16T20:42:09.326Z,2.80
2019-03-16T20:44:42.160Z,2.90
2019-03-16T20:47:13.995Z,3.83
2019-03-16T20:49:46.033Z,4.47
2019-03-16T20:52:18.083Z,5.37
2019-03-16T20:54:51.282Z,7.13
2019-03-16T20:57:22.741Z,4.97
2019-03-16T20:59:54.467Z,5.37
2019-03-16T21:02:26.674Z,4.70
2019-03-16T21:04:58.526Z,4.63
2019-03-16T21:07:30.002Z,3.47
2019-03-16T21:10:01.429Z,3.43
2019-03-16T21:12:34.085Z,3.50
2019-03-16T21:15:07.584Z,3.03
2019-03-16T21:17:44.394Z,3.60
2019-03-16T21:20:17.025Z,3.00
2019-03-16T21:22:48.559Z,2.77
2019-03-16T21:25:20.090Z,3.40
2019-03-16T21:27:51.862Z,3.20
2019-03-16T21:30:23.654Z,3.60
2019-03-16T21:32:56.668Z,3.77
2019-03-16T21:35:28.542Z,3.23
2019-03-16T21:38:02.325Z,3.17
2019-03-16T21:40:34.017Z,3.53
2019-03-16T21:43:05.467Z,3.37
2019-03-16T21:45:36.775Z,3.03
2019-03-16T21:48:08.237Z,2.80
2019-03-16T21:50:39.763Z,3.07
2019-03-16T21:53:11.117Z,3.27
2019-03-16T21:55:42.541Z,3.93
2019-03-16T21:58:14.371Z,4.13
2019-03-16T22:00:45.845Z,3.70
2019-03-16T22:03:17.316Z,3.50
2019-03-16T22:05:50.083Z,3.60
2019-03-16T22:08:24.545Z,3.80
2019-03-16T22:10:59.407Z,3.90
2019-03-16T22:13:30.851Z,3.20
2019-03-16T22:16:02.626Z,2.90
2019-03-16T22:18:35.443Z,2.80
2019-03-16T22:21:07.237Z,2.90
2019-03-16T22:23:38.989Z,2.73
2019-03-16T22:26:11.458Z,3.00
2019-03-16T22:28:45.653Z,2.37
2019-03-16T22:31:18.579Z,2.50
2019-03-16T22:33:54.813Z,2.30
2019-03-16T22:36:23.474Z,2.50
2019-03-16T22:38:55.450Z,2.30
2019-03-16T22:41:28.123Z,2.17
2019-03-16T22:44:00.227Z,2.20
2019-03-16T22:46:31.894Z,2.00
2019-03-16T22:49:07.206Z,2.07
2019-03-16T22:51:38.495Z,2.33
2019-03-16T22:54:09.972Z,2.13
2019-03-16T22:56:41.376Z,2.30
2019-03-16T22:59:12.811Z,2.30
2019-03-16T23:01:44.581Z,2.20
2019-03-16T23:04:15.881Z,2.30
2019-03-16T23:06:47.602Z,2.40
2019-03-16T23:09:19.316Z,2.13
2019-03-16T23:11:53.987Z,2.63
2019-03-16T23:14:25.331Z,2.50
2019-03-16T23:16:56.684Z,2.00
2019-03-16T23:19:29.564Z,2.57
2019-03-16T23:22:02.229Z,2.03
2019-03-16T23:24:33.876Z,2.23
2019-03-16T23:27:07.784Z,2.23
2019-03-16T23:29:39.092Z,2.03
2019-03-16T23:32:10.376Z,2.30
2019-03-16T23:34:41.817Z,2.10
2019-03-16T23:37:13.979Z,1.90
2019-03-16T23:39:48.702Z,2.33
2019-03-16T23:42:21.837Z,2.20
2019-03-16T23:44:53.494Z,1.83
2019-03-16T23:47:26.015Z,1.93
2019-03-16T23:49:57.385Z,2.10
2019-03-16T23:52:28.723Z,2.17
2019-03-16T23:55:00.077Z,2.17
2019-03-16T23:57:31.443Z,2.30
